Time;durP1;ratioP1;P1;durP2;ratioP2;P2;SDS_P1;SDS_P2;PMS_P1;PMS_P2;Temp;Humidity;BMP_temperature;BMP_pressure;BME280_temperature;BME280_humidity;BME280_pressure;Samples;Min_cycle;Max_cycle;Signal;HPM_P1;HPM_P2
2021/08/18 00:01:21;;;;;;;;;;;14.40;99.90;;;;;;4936819;28;20374;-89
2021/08/18 00:03:47;;;;;;;;;;;14.30;99.90;;;;;;4932824;28;19953;-89
2021/08/18 00:06:23;;;;;;;;;;;;;;;;;;;;;
2021/08/18 00:09:13;;;;;;;;;;;14.30;99.90;;;;;;4948784;28;19938;-88
2021/08/18 00:11:40;;;;;;;;;;;14.30;99.90;;;;;;4945959;28;20382;-88
2021/08/18 00:14:06;;;;;;;;;;;14.20;99.90;;;;;;4932943;28;20389;-89
2021/08/18 00:16:32;;;;;;;;;;;14.20;99.90;;;;;;4959729;28;19937;-89
2021/08/18 00:18:58;;;;;;;;;;;14.20;99.90;;;;;;4952846;28;20018;-89
2021/08/18 00:21:24;;;;;;;;;;;14.20;99.90;;;;;;4949443;28;19953;-88
2021/08/18 00:23:51;;;;;;;;;;;14.20;99.90;;;;;;4930504;28;19923;-89
2021/08/18 00:26:26;;;;;;;;;;;14.20;99.90;;;;;;4948810;28;19923;-89
2021/08/18 00:28:53;;;;;;;;;;;14.30;99.90;;;;;;4949165;28;20309;-89
2021/08/18 00:31:22;;;;;;;;;;;14.30;99.90;;;;;;4959572;28;19922;-89
2021/08/18 00:33:49;;;;;;;;;;;14.30;99.90;;;;;;4959605;28;19973;-88
2021/08/18 00:36:17;;;;;;;;;;;14.30;99.90;;;;;;4953966;28;19985;-89
2021/08/18 00:38:43;;;;;;;;;;;14.40;99.90;;;;;;4921591;28;19930;-88
2021/08/18 00:41:10;;;;;;;;;;;14.40;99.90;;;;;;4954118;28;20394;-89
2021/08/18 00:43:36;;;;;;;;;;;14.50;99.90;;;;;;4965714;28;20380;-87
2021/08/18 00:46:02;;;;;;;;;;;14.50;99.90;;;;;;4968069;28;19989;-89
2021/08/18 00:48:28;;;;;;;;;;;14.50;99.90;;;;;;4932847;28;19961;-89
2021/08/18 00:50:54;;;;;;;;;;;14.50;99.90;;;;;;4968227;28;20412;-86
2021/08/18 00:53:20;;;;;;;;;;;14.50;99.90;;;;;;4955051;28;19921;-88
2021/08/18 00:55:46;;;;;;;;;;;14.50;99.90;;;;;;4977747;28;20016;-87
2021/08/18 00:58:11;;;;;;;;;;;14.50;99.90;;;;;;4978184;28;20381;-88
2021/08/18 01:00:37;;;;;;;;;;;14.50;99.90;;;;;;4983076;28;19922;-89
2021/08/18 01:03:06;;;;;;;;;;;14.60;99.90;;;;;;4932147;28;19996;-88
2021/08/18 01:05:31;;;;;;;;;;;14.60;99.90;;;;;;4991431;28;19961;-88
2021/08/18 01:07:58;;;;;;;;;;;14.70;99.90;;;;;;4954015;28;20094;-89
2021/08/18 01:10:26;;;;;;;;;;;14.70;99.90;;;;;;4966039;28;19930;-82
2021/08/18 01:12:53;;;;;;;;;;;14.70;99.90;;;;;;4961877;28;20966;-82
2021/08/18 01:15:20;;;;;;;;;;;14.70;99.90;;;;;;4986861;28;19922;-83
2021/08/18 01:17:50;;;;;;;;;;;14.70;99.90;;;;;;4951143;28;19932;-83
2021/08/18 01:20:36;;;;;;;;;;;14.70;99.90;;;;;;4968030;28;19922;-83
2021/08/18 01:23:03;;;;;;;;;;;14.80;99.90;;;;;;4959632;28;20330;-83
2021/08/18 01:25:29;;;;;;;;;;;14.80;99.90;;;;;;4976568;28;20718;-83
2021/08/18 01:28:13;;;;;;;;;;;14.80;99.90;;;;;;4972458;28;19934;-82
2021/08/18 01:30:40;;;;;;;;;;;14.80;99.90;;;;;;4967743;28;19937;-83
2021/08/18 01:33:12;;;;;;;;;;;14.80;99.90;;;;;;4959467;28;19937;-83
2021/08/18 01:35:42;;;;;;;;;;;14.90;99.90;;;;;;4988463;28;19961;-83
2021/08/18 01:38:09;;;;;;;;;;;14.90;99.90;;;;;;4978153;28;19922;-82
2021/08/18 01:40:36;;;;;;;;;;;14.90;99.90;;;;;;4974998;28;20042;-82
2021/08/18 01:43:02;;;;;;;;;;;14.90;99.90;;;;;;4977564;28;20272;-83
2021/08/18 01:45:31;;;;;;;;;;;14.90;99.90;;;;;;4959192;28;19938;-83
2021/08/18 01:47:57;;;;;;;;;;;14.90;99.90;;;;;;4955363;28;19923;-82
2021/08/18 01:50:23;;;;;;;;;;;15.00;99.90;;;;;;4964698;28;20394;-82
2021/08/18 01:52:56;;;;;;;;;;;15.00;99.90;;;;;;4952622;28;20354;-82
2021/08/18 01:55:23;;;;;;;;;;;15.00;99.90;;;;;;4965923;28;19922;-83
2021/08/18 01:57:49;;;;;;;;;;;15.00;99.90;;;;;;4955926;28;20468;-83
2021/08/18 02:00:15;;;;;;;;;;;15.00;99.90;;;;;;4971277;28;19934;-83
2021/08/18 02:02:44;;;;;;;;;;;15.00;99.90;;;;;;4974805;28;19926;-82
2021/08/18 02:05:10;;;;;;;;;;;15.00;99.90;;;;;;4972635;28;20948;-82
2021/08/18 02:07:36;;;;;;;;;;;15.00;99.90;;;;;;4972676;28;19933;-81
2021/08/18 02:10:07;;;;;;;;;;;15.00;99.90;;;;;;4981483;28;19930;-84
2021/08/18 02:12:35;;;;;;;;;;;15.00;99.90;;;;;;4961274;28;20420;-82
2021/08/18 02:15:01;;;;;;;;;;;15.00;99.90;;;;;;4978764;28;19923;-82
2021/08/18 02:17:27;;;;;;;;;;;15.00;99.90;;;;;;4967824;28;19926;-83
2021/08/18 02:19:52;;;;;;;;;;;15.00;99.90;;;;;;4946782;28;19933;-83
2021/08/18 02:22:18;;;;;;;;;;;15.00;99.90;;;;;;4949102;28;20012;-82
2021/08/18 02:24:44;;;;;;;;;;;15.00;99.90;;;;;;4944791;29;20020;-82
2021/08/18 02:27:13;;;;;;;;;;;15.00;99.90;;;;;;4946392;28;19927;-83
2021/08/18 02:29:38;;;;;;;;;;;15.00;99.90;;;;;;4934814;28;19926;-83
2021/08/18 02:32:04;;;;;;;;;;;15.00;99.90;;;;;;4942693;28;20381;-83
2021/08/18 02:34:30;;;;;;;;;;;15.00;99.90;;;;;;4959173;28;19929;-82
2021/08/18 02:36:56;;;;;;;;;;;15.00;99.90;;;;;;4956324;28;20329;-81
2021/08/18 02:39:25;;;;;;;;;;;15.00;99.90;;;;;;4958024;28;20313;-82
2021/08/18 02:41:51;;;;;;;;;;;15.10;99.90;;;;;;4956110;28;19922;-83
2021/08/18 02:44:17;;;;;;;;;;;15.10;99.90;;;;;;4938334;28;19950;-83
2021/08/18 02:46:42;;;;;;;;;;;15.10;99.90;;;;;;4956426;28;20404;-82
2021/08/18 02:49:11;;;;;;;;;;;15.10;99.90;;;;;;4939707;28;19926;-82
2021/08/18 02:51:37;;;;;;;;;;;15.10;99.90;;;;;;4943061;28;19921;-82
2021/08/18 02:54:03;;;;;;;;;;;15.10;99.90;;;;;;4954309;28;19930;-82
2021/08/18 02:56:28;;;;;;;;;;;15.10;99.90;;;;;;4958743;28;19981;-82
2021/08/18 02:58:54;;;;;;;;;;;15.10;99.90;;;;;;4921923;28;19926;-83
2021/08/18 03:01:20;;;;;;;;;;;15.10;99.90;;;;;;4936643;28;19930;-83
2021/08/18 03:03:46;;;;;;;;;;;15.10;99.90;;;;;;4936015;28;19923;-82
2021/08/18 03:06:11;;;;;;;;;;;15.10;99.90;;;;;;4939681;28;19928;-82
2021/08/18 03:08:38;;;;;;;;;;;15.10;99.90;;;;;;4956538;28;19936;-83
2021/08/18 03:11:04;;;;;;;;;;;15.10;99.90;;;;;;4937662;28;20430;-82
2021/08/18 03:13:31;;;;;;;;;;;15.10;99.90;;;;;;4934929;28;19948;-83
2021/08/18 03:15:56;;;;;;;;;;;15.10;99.90;;;;;;4963993;28;20381;-82
2021/08/18 03:18:22;;;;;;;;;;;15.10;99.90;;;;;;4936711;28;19926;-82
2021/08/18 03:20:50;;;;;;;;;;;15.10;99.90;;;;;;4930027;28;19981;-82
2021/08/18 03:23:16;;;;;;;;;;;15.10;99.90;;;;;;4951937;28;20009;-83
2021/08/18 03:25:42;;;;;;;;;;;15.10;99.90;;;;;;4950582;28;20383;-83
2021/08/18 03:28:08;;;;;;;;;;;15.10;99.90;;;;;;4935929;28;19926;-83
2021/08/18 03:30:34;;;;;;;;;;;15.10;99.90;;;;;;4954900;28;20005;-83
2021/08/18 03:33:00;;;;;;;;;;;15.20;99.90;;;;;;4954626;28;20024;-83
2021/08/18 03:35:25;;;;;;;;;;;15.20;99.90;;;;;;4939096;28;19926;-82
2021/08/18 03:37:54;;;;;;;;;;;15.20;99.90;;;;;;4952365;28;19965;-82
2021/08/18 03:40:20;;;;;;;;;;;15.20;99.90;;;;;;4941968;28;19953;-82
2021/08/18 03:42:45;;;;;;;;;;;15.20;99.90;;;;;;4972542;28;19933;-83
2021/08/18 03:45:14;;;;;;;;;;;15.20;99.90;;;;;;4960971;28;20276;-83
2021/08/18 03:47:40;;;;;;;;;;;15.30;99.90;;;;;;4953898;28;19938;-83
2021/08/18 03:50:06;;;;;;;;;;;15.30;99.90;;;;;;4962779;28;20025;-83
2021/08/18 03:52:32;;;;;;;;;;;15.30;99.90;;;;;;4955449;28;20038;-83
2021/08/18 03:55:01;;;;;;;;;;;15.30;99.90;;;;;;4945202;28;19931;-82
2021/08/18 03:57:27;;;;;;;;;;;15.30;99.90;;;;;;4926242;28;19972;-83
2021/08/18 03:59:53;;;;;;;;;;;15.30;99.90;;;;;;4955555;28;19934;-83
2021/08/18 04:02:22;;;;;;;;;;;15.40;99.90;;;;;;4941358;28;19930;-82
2021/08/18 04:04:48;;;;;;;;;;;15.30;99.90;;;;;;4962947;28;19930;-83
2021/08/18 04:07:13;;;;;;;;;;;15.40;99.90;;;;;;4967825;28;19926;-83
2021/08/18 04:09:39;;;;;;;;;;;15.40;99.90;;;;;;4966263;28;20301;-82
2021/08/18 04:12:05;;;;;;;;;;;15.40;99.90;;;;;;4963888;28;19930;-83
2021/08/18 04:14:35;;;;;;;;;;;15.50;99.90;;;;;;4944144;28;19926;-81
2021/08/18 04:17:03;;;;;;;;;;;15.40;99.90;;;;;;4944676;28;19998;-83
2021/08/18 04:19:32;;;;;;;;;;;15.40;99.90;;;;;;4944054;28;20017;-83
2021/08/18 04:22:00;;;;;;;;;;;15.20;99.90;;;;;;4958827;28;19929;-83
2021/08/18 04:24:27;;;;;;;;;;;15.00;99.90;;;;;;4951691;28;20302;-82
2021/08/18 04:26:55;;;;;;;;;;;14.90;99.90;;;;;;4953072;28;19926;-82
2021/08/18 04:29:21;;;;;;;;;;;14.80;99.90;;;;;;4942799;28;20387;-83
2021/08/18 04:31:47;;;;;;;;;;;14.70;99.90;;;;;;4939892;28;19930;-83
2021/08/18 04:34:13;;;;;;;;;;;14.60;99.90;;;;;;4935503;28;19926;-83
2021/08/18 04:36:39;;;;;;;;;;;14.70;99.90;;;;;;4952545;28;20022;-83
2021/08/18 04:39:05;;;;;;;;;;;14.70;99.90;;;;;;4969333;28;19926;-83
2021/08/18 04:41:32;;;;;;;;;;;14.70;99.90;;;;;;4967741;28;19965;-82
2021/08/18 04:44:02;;;;;;;;;;;14.70;99.90;;;;;;4960374;28;19926;-82
2021/08/18 04:46:28;;;;;;;;;;;14.70;99.90;;;;;;4957518;28;19922;-82
2021/08/18 04:48:54;;;;;;;;;;;14.80;99.90;;;;;;4951468;28;19986;-82
2021/08/18 04:51:20;;;;;;;;;;;14.80;99.90;;;;;;4958136;28;19926;-82
2021/08/18 04:53:47;;;;;;;;;;;14.80;99.90;;;;;;4974156;28;20021;-82
2021/08/18 04:56:13;;;;;;;;;;;14.80;99.90;;;;;;4963442;28;19957;-82
2021/08/18 04:58:45;;;;;;;;;;;14.80;99.90;;;;;;4967818;28;20022;-82
2021/08/18 05:01:11;;;;;;;;;;;14.80;99.90;;;;;;4961705;28;19964;-83
2021/08/18 05:03:37;;;;;;;;;;;14.80;99.90;;;;;;4938294;28;19957;-82
2021/08/18 05:06:05;;;;;;;;;;;14.70;99.90;;;;;;4955465;28;20357;-82
2021/08/18 05:08:31;;;;;;;;;;;14.70;99.90;;;;;;4952968;28;19934;-83
2021/08/18 05:10:56;;;;;;;;;;;14.70;99.90;;;;;;4965062;28;19926;-82
2021/08/18 05:13:30;;;;;;;;;;;14.60;99.90;;;;;;4959440;28;20433;-81
2021/08/18 05:15:59;;;;;;;;;;;14.70;99.90;;;;;;4965543;28;19931;-82
2021/08/18 05:18:35;;;;;;;;;;;14.70;99.90;;;;;;4974009;28;20029;-82
2021/08/18 05:21:01;;;;;;;;;;;14.70;99.90;;;;;;4956298;28;19929;-83
2021/08/18 05:23:28;;;;;;;;;;;14.70;99.90;;;;;;4939396;29;19922;-83
2021/08/18 05:25:56;;;;;;;;;;;14.70;99.90;;;;;;4971702;28;20305;-83
2021/08/18 05:28:22;;;;;;;;;;;14.80;99.90;;;;;;4954694;29;20395;-83
2021/08/18 05:30:58;;;;;;;;;;;14.80;99.90;;;;;;4959751;28;19953;-82
2021/08/18 05:33:44;;;;;;;;;;;14.80;99.90;;;;;;4943696;28;19929;-82
2021/08/18 05:36:10;;;;;;;;;;;14.80;99.90;;;;;;4973513;28;19949;-82
2021/08/18 05:38:37;;;;;;;;;;;14.90;99.90;;;;;;4958890;28;19919;-83
2021/08/18 05:41:08;;;;;;;;;;;14.90;99.90;;;;;;4969086;28;19927;-82
2021/08/18 05:43:34;;;;;;;;;;;15.00;99.90;;;;;;4968147;28;19926;-82
2021/08/18 05:46:01;;;;;;;;;;;15.00;99.90;;;;;;4957638;28;19930;-82
2021/08/18 05:48:26;;;;;;;;;;;15.00;99.90;;;;;;4953990;28;19923;-82
2021/08/18 05:50:53;;;;;;;;;;;15.00;99.90;;;;;;4952997;28;19927;-82
2021/08/18 05:53:22;;;;;;;;;;;15.00;99.90;;;;;;4968329;28;19926;-85
2021/08/18 05:55:56;;;;;;;;;;;15.10;99.90;;;;;;4949162;28;19929;-82
2021/08/18 05:58:21;;;;;;;;;;;15.10;99.90;;;;;;4955463;29;20356;-83
2021/08/18 06:00:49;;;;;;;;;;;15.10;99.90;;;;;;4962141;28;20025;-81
2021/08/18 06:03:15;;;;;;;;;;;15.10;99.90;;;;;;4936166;28;20017;-82
2021/08/18 06:05:41;;;;;;;;;;;15.10;99.90;;;;;;4938221;29;19922;-81
2021/08/18 06:08:10;;;;;;;;;;;15.10;99.90;;;;;;4953458;28;20481;-81
2021/08/18 06:10:36;;;;;;;;;;;15.10;99.90;;;;;;4970278;28;19934;-81
2021/08/18 06:13:05;;;;;;;;;;;15.20;99.90;;;;;;4937653;28;19922;-81
2021/08/18 06:15:31;;;;;;;;;;;15.10;99.90;;;;;;4970076;28;19926;-82
2021/08/18 06:17:58;;;;;;;;;;;15.20;99.90;;;;;;4954664;28;20386;-82
2021/08/18 06:20:24;;;;;;;;;;;15.20;99.90;;;;;;4970279;28;19988;-82
2021/08/18 06:22:50;;;;;;;;;;;15.20;99.90;;;;;;4969973;28;19966;-82
2021/08/18 06:25:16;;;;;;;;;;;15.20;99.90;;;;;;4969359;28;19964;-82
2021/08/18 06:27:42;;;;;;;;;;;15.20;99.90;;;;;;4969895;28;20298;-81
2021/08/18 06:30:08;;;;;;;;;;;15.30;99.90;;;;;;4969660;28;19937;-81
2021/08/18 06:32:34;;;;;;;;;;;15.30;99.90;;;;;;4953966;28;20416;-85
2021/08/18 06:35:04;;;;;;;;;;;15.30;99.90;;;;;;4936480;28;19930;-82
2021/08/18 06:37:30;;;;;;;;;;;15.30;99.90;;;;;;4951051;28;20465;-81
2021/08/18 06:39:55;;;;;;;;;;;15.30;99.90;;;;;;4961728;28;19927;-81
2021/08/18 06:42:21;;;;;;;;;;;15.30;99.90;;;;;;4964242;28;19926;-82
2021/08/18 06:44:50;;;;;;;;;;;15.30;99.90;;;;;;4948234;28;20291;-81
2021/08/18 06:47:16;;;;;;;;;;;15.40;99.90;;;;;;4963961;28;19933;-82
2021/08/18 06:49:43;;;;;;;;;;;15.40;99.90;;;;;;4954195;28;19926;-82
2021/08/18 06:52:09;;;;;;;;;;;15.40;99.90;;;;;;4965339;28;19922;-82
2021/08/18 06:54:37;;;;;;;;;;;15.40;99.90;;;;;;4959671;28;19922;-82
2021/08/18 06:57:06;;;;;;;;;;;15.40;99.90;;;;;;4961860;28;20785;-82
2021/08/18 06:59:32;;;;;;;;;;;15.50;99.90;;;;;;4966862;28;19925;-82
2021/08/18 07:01:58;;;;;;;;;;;15.50;99.90;;;;;;4967843;28;19930;-82
2021/08/18 07:04:24;;;;;;;;;;;15.50;99.90;;;;;;4951930;28;19930;-82
2021/08/18 07:06:50;;;;;;;;;;;15.50;99.90;;;;;;4983314;28;20411;-81
2021/08/18 07:09:15;;;;;;;;;;;15.50;99.90;;;;;;4952427;28;19965;-82
2021/08/18 07:11:41;;;;;;;;;;;15.50;99.90;;;;;;4971945;28;19928;-81
2021/08/18 07:14:07;;;;;;;;;;;15.50;99.90;;;;;;4981170;28;20352;-81
2021/08/18 07:16:34;;;;;;;;;;;15.50;99.90;;;;;;4935035;28;19929;-80
2021/08/18 07:19:01;;;;;;;;;;;15.50;99.90;;;;;;4967837;28;19930;-82
2021/08/18 07:21:27;;;;;;;;;;;15.50;99.90;;;;;;4964104;28;19964;-82
2021/08/18 07:23:53;;;;;;;;;;;15.60;99.90;;;;;;4951043;28;19926;-83
2021/08/18 07:26:21;;;;;;;;;;;15.60;99.90;;;;;;4950717;28;20374;-81
2021/08/18 07:28:48;;;;;;;;;;;15.60;99.90;;;;;;4951265;28;19973;-80
2021/08/18 07:31:14;;;;;;;;;;;15.70;99.90;;;;;;4969834;28;19930;-82
2021/08/18 07:33:40;;;;;;;;;;;15.70;99.90;;;;;;4968473;28;19933;-81
2021/08/18 07:36:08;;;;;;;;;;;15.70;99.90;;;;;;4950744;28;19922;-81
2021/08/18 07:38:34;;;;;;;;;;;15.80;99.90;;;;;;4961412;28;19937;-82
2021/08/18 07:41:00;;;;;;;;;;;15.80;99.90;;;;;;4957902;28;19926;-81
2021/08/18 07:43:26;;;;;;;;;;;15.80;99.90;;;;;;4939509;28;19922;-81
2021/08/18 07:45:53;;;;;;;;;;;15.90;99.90;;;;;;4951894;28;19958;-81
2021/08/18 07:48:18;;;;;;;;;;;15.90;99.90;;;;;;4949493;28;19923;-82
2021/08/18 07:50:44;;;;;;;;;;;16.10;99.90;;;;;;4949180;28;19937;-83
2021/08/18 07:53:10;;;;;;;;;;;16.10;99.90;;;;;;4960933;28;20275;-81
2021/08/18 07:55:36;;;;;;;;;;;16.20;99.90;;;;;;4965200;28;20032;-81
2021/08/18 07:58:02;;;;;;;;;;;16.20;99.90;;;;;;4933546;28;19989;-82
2021/08/18 08:00:27;;;;;;;;;;;16.30;99.90;;;;;;4935699;28;20346;-82
2021/08/18 08:02:53;;;;;;;;;;;16.30;99.90;;;;;;4949950;28;19918;-82
2021/08/18 08:05:19;;;;;;;;;;;16.40;99.90;;;;;;4949985;28;19965;-82
2021/08/18 08:07:45;;;;;;;;;;;16.40;99.90;;;;;;4949426;28;20457;-82
2021/08/18 08:10:12;;;;;;;;;;;16.40;99.90;;;;;;4926133;28;20017;-82
2021/08/18 08:12:38;;;;;;;;;;;16.40;99.90;;;;;;4949047;28;20853;-81
2021/08/18 08:15:05;;;;;;;;;;;16.50;99.90;;;;;;4969011;28;19930;-83
2021/08/18 08:17:31;;;;;;;;;;;16.50;99.90;;;;;;4944979;28;19961;-82
2021/08/18 08:20:01;;;;;;;;;;;16.60;99.90;;;;;;4962719;28;19930;-82
2021/08/18 08:22:27;;;;;;;;;;;16.60;99.90;;;;;;4966615;28;20519;-81
2021/08/18 08:24:52;;;;;;;;;;;16.60;99.90;;;;;;4968334;28;19926;-82
2021/08/18 08:27:18;;;;;;;;;;;16.60;99.90;;;;;;4951230;28;19929;-82
2021/08/18 08:29:44;;;;;;;;;;;16.60;99.90;;;;;;4969113;28;19937;-81
2021/08/18 08:32:10;;;;;;;;;;;16.60;99.90;;;;;;4966779;28;19930;-81
2021/08/18 08:34:39;;;;;;;;;;;16.60;99.90;;;;;;4953835;28;20445;-82
2021/08/18 08:37:05;;;;;;;;;;;16.60;99.90;;;;;;4970841;28;20316;-81
2021/08/18 08:39:31;;;;;;;;;;;16.60;99.90;;;;;;4973092;28;19925;-82
2021/08/18 08:42:00;;;;;;;;;;;16.70;99.90;;;;;;4942241;28;19950;-82
2021/08/18 08:44:26;;;;;;;;;;;16.70;99.90;;;;;;4954416;28;19927;-81
2021/08/18 08:46:53;;;;;;;;;;;16.80;99.90;;;;;;4950378;28;20552;-81
2021/08/18 08:49:20;;;;;;;;;;;16.80;99.90;;;;;;4953050;28;20382;-82
2021/08/18 08:51:49;;;;;;;;;;;16.90;99.90;;;;;;4966035;28;19933;-82
2021/08/18 08:54:16;;;;;;;;;;;16.90;99.90;;;;;;4954642;28;20678;-81
2021/08/18 08:56:42;;;;;;;;;;;17.00;99.90;;;;;;4960215;28;19922;-83
2021/08/18 08:59:08;;;;;;;;;;;17.00;99.90;;;;;;4966352;28;19984;-82
2021/08/18 09:01:52;;;;;;;;;;;17.00;99.90;;;;;;4971152;28;19926;-82
2021/08/18 09:04:31;;;;;;;;;;;17.00;99.90;;;;;;4959648;28;20024;-82
2021/08/18 09:07:14;;;;;;;;;;;17.00;99.90;;;;;;4970522;28;19926;-82
2021/08/18 09:09:50;;;;;;;;;;;17.10;99.90;;;;;;4968140;28;19930;-81
2021/08/18 09:12:17;;;;;;;;;;;17.00;99.90;;;;;;4969235;28;19926;-80
2021/08/18 09:14:43;;;;;;;;;;;17.00;99.90;;;;;;4969009;28;19933;-82
2021/08/18 09:17:42;;;;;;;;;;;17.10;99.90;;;;;;4954045;28;19926;-81
2021/08/18 09:20:12;;;;;;;;;;;17.10;99.90;;;;;;4951163;28;19933;-82
2021/08/18 09:22:50;;;;;;;;;;;17.10;99.90;;;;;;4953169;28;20012;-82
2021/08/18 09:25:18;;;;;;;;;;;17.10;99.90;;;;;;4955449;28;20012;-81
2021/08/18 09:27:53;;;;;;;;;;;17.10;99.90;;;;;;4955481;28;20505;-82
2021/08/18 09:30:26;;;;;;;;;;;17.20;99.90;;;;;;4953856;28;19938;-82
2021/08/18 09:32:53;;;;;;;;;;;17.20;99.90;;;;;;4953559;28;19926;-81
2021/08/18 09:35:22;;;;;;;;;;;17.30;99.90;;;;;;4953683;28;19997;-82
2021/08/18 09:37:54;;;;;;;;;;;17.30;99.90;;;;;;4963845;28;19978;-82
2021/08/18 09:40:21;;;;;;;;;;;17.40;99.90;;;;;;4967855;28;19923;-82
2021/08/18 09:42:47;;;;;;;;;;;17.40;99.90;;;;;;4946881;28;20289;-82
2021/08/18 09:45:23;;;;;;;;;;;17.40;99.90;;;;;;4928212;28;19937;-82
2021/08/18 09:47:54;;;;;;;;;;;17.50;99.90;;;;;;4951495;28;20302;-82
2021/08/18 09:50:22;;;;;;;;;;;17.50;99.90;;;;;;4952316;28;19930;-82
2021/08/18 09:52:48;;;;;;;;;;;17.60;99.90;;;;;;4963495;28;19958;-81
2021/08/18 09:55:14;;;;;;;;;;;17.70;99.90;;;;;;4955676;28;19926;-82
2021/08/18 09:57:40;;;;;;;;;;;17.70;99.90;;;;;;4952086;28;20469;-82
2021/08/18 10:00:09;;;;;;;;;;;17.70;99.90;;;;;;4952017;28;19930;-81
2021/08/18 10:02:38;;;;;;;;;;;17.80;99.90;;;;;;4951583;28;19926;-81
2021/08/18 10:05:04;;;;;;;;;;;17.90;99.90;;;;;;4952928;28;20079;-82
2021/08/18 10:07:30;;;;;;;;;;;17.90;99.90;;;;;;4921454;28;20387;-83
2021/08/18 10:09:56;;;;;;;;;;;18.00;99.90;;;;;;4951480;28;20625;-81
2021/08/18 10:12:22;;;;;;;;;;;18.10;99.90;;;;;;4951457;28;20299;-82
2021/08/18 10:14:48;;;;;;;;;;;18.10;99.90;;;;;;4942446;28;19957;-82
2021/08/18 10:17:14;;;;;;;;;;;18.10;99.90;;;;;;4951564;28;19927;-82
2021/08/18 10:19:40;;;;;;;;;;;18.20;99.90;;;;;;4966742;28;19937;-82
2021/08/18 10:22:10;;;;;;;;;;;18.20;99.90;;;;;;4938830;28;19926;-81
2021/08/18 10:24:38;;;;;;;;;;;18.20;99.90;;;;;;4940893;28;19922;-83
2021/08/18 10:27:07;;;;;;;;;;;18.20;99.90;;;;;;4969979;28;19981;-81
2021/08/18 10:29:39;;;;;;;;;;;18.20;99.90;;;;;;4969983;28;19976;-82
2021/08/18 10:32:05;;;;;;;;;;;18.30;99.90;;;;;;4968335;28;20718;-81
2021/08/18 10:34:43;;;;;;;;;;;18.30;99.90;;;;;;4967670;28;19933;-81
2021/08/18 10:37:13;;;;;;;;;;;18.40;99.90;;;;;;4944015;28;19922;-82
2021/08/18 10:39:40;;;;;;;;;;;18.50;99.90;;;;;;4972196;28;19981;-82
2021/08/18 10:42:10;;;;;;;;;;;18.50;99.90;;;;;;4990258;28;19941;-82
2021/08/18 10:44:56;;;;;;;;;;;18.50;99.90;;;;;;4978582;28;20329;-81
2021/08/18 10:47:42;;;;;;;;;;;18.70;99.90;;;;;;4970797;28;19958;-83
2021/08/18 10:50:16;;;;;;;;;;;18.70;99.90;;;;;;4970420;28;20502;-81
2021/08/18 10:52:41;;;;;;;;;;;18.80;99.90;;;;;;4965339;28;19923;-81
2021/08/18 10:55:07;;;;;;;;;;;18.90;99.90;;;;;;4962909;28;20405;-82
2021/08/18 10:57:40;;;;;;;;;;;19.00;99.90;;;;;;4969951;28;20042;-82
2021/08/18 11:00:24;;;;;;;;;;;19.10;99.90;;;;;;4980521;28;19925;-83
2021/08/18 11:02:57;;;;;;;;;;;19.10;99.90;;;;;;4969718;28;19996;-82
2021/08/18 11:05:27;;;;;;;;;;;19.00;99.90;;;;;;4970962;28;19965;-82
2021/08/18 11:07:59;;;;;;;;;;;19.00;99.90;;;;;;4969868;28;19925;-82
2021/08/18 11:10:25;;;;;;;;;;;19.10;99.90;;;;;;4969568;28;19926;-82
2021/08/18 11:12:51;;;;;;;;;;;19.20;99.90;;;;;;4968521;28;20381;-82
2021/08/18 11:15:22;;;;;;;;;;;19.30;99.90;;;;;;4983303;28;19965;-81
2021/08/18 11:17:49;;;;;;;;;;;19.40;99.90;;;;;;4934415;28;20289;-81
2021/08/18 11:20:19;;;;;;;;;;;19.40;99.90;;;;;;4953214;28;20011;-82
2021/08/18 11:22:46;;;;;;;;;;;19.40;99.90;;;;;;4954875;28;20321;-82
2021/08/18 11:25:17;;;;;;;;;;;19.40;99.90;;;;;;4957590;28;19948;-82
2021/08/18 11:27:46;;;;;;;;;;;19.40;99.90;;;;;;4950205;28;20350;-81
2021/08/18 11:30:12;;;;;;;;;;;19.50;99.90;;;;;;4950589;28;20308;-81
2021/08/18 11:32:37;;;;;;;;;;;19.60;99.90;;;;;;4951518;28;19922;-81
2021/08/18 11:35:03;;;;;;;;;;;19.60;99.90;;;;;;4949656;28;19926;-82
2021/08/18 11:37:29;;;;;;;;;;;19.60;99.90;;;;;;4950119;28;19977;-81
2021/08/18 11:39:59;;;;;;;;;;;19.40;99.90;;;;;;4958521;28;20003;-82
2021/08/18 11:42:25;;;;;;;;;;;19.30;99.90;;;;;;4949967;28;19936;-81
2021/08/18 11:45:02;;;;;;;;;;;19.20;99.90;;;;;;4957986;28;19930;-81
2021/08/18 11:47:29;;;;;;;;;;;19.10;99.90;;;;;;4966901;28;19930;-81
2021/08/18 11:49:56;;;;;;;;;;;19.00;99.90;;;;;;4970021;28;20301;-82
2021/08/18 11:52:22;;;;;;;;;;;18.90;99.90;;;;;;4967086;28;19933;-81
2021/08/18 11:54:58;;;;;;;;;;;18.90;99.90;;;;;;4949960;28;19926;-81
2021/08/18 11:57:24;;;;;;;;;;;18.90;99.90;;;;;;4959396;28;19953;-82
2021/08/18 11:59:51;;;;;;;;;;;18.80;99.90;;;;;;4968124;28;19930;-82
2021/08/18 12:02:17;;;;;;;;;;;18.90;99.90;;;;;;4968666;28;19922;-83
2021/08/18 12:04:42;;;;;;;;;;;18.90;99.90;;;;;;4968612;28;19980;-81
2021/08/18 12:07:13;;;;;;;;;;;18.90;99.90;;;;;;4967987;28;19977;-81
2021/08/18 12:09:39;;;;;;;;;;;18.90;99.90;;;;;;4966578;28;20302;-82
2021/08/18 12:12:09;;;;;;;;;;;18.80;99.90;;;;;;4957798;28;19952;-81
2021/08/18 12:14:39;;;;;;;;;;;18.80;99.90;;;;;;4956291;28;19933;-81
2021/08/18 12:17:05;;;;;;;;;;;18.80;99.90;;;;;;4955673;28;19927;-81
2021/08/18 12:19:38;;;;;;;;;;;18.80;99.90;;;;;;4956363;28;20271;-81
2021/08/18 12:22:09;;;;;;;;;;;18.80;99.90;;;;;;4956285;28;19930;-81
2021/08/18 12:24:36;;;;;;;;;;;18.90;99.90;;;;;;4955889;28;19938;-82
2021/08/18 12:27:03;;;;;;;;;;;18.90;99.90;;;;;;4956875;28;19922;-82
2021/08/18 12:29:29;;;;;;;;;;;19.00;99.90;;;;;;4952672;28;19977;-82
2021/08/18 12:32:06;;;;;;;;;;;19.00;99.90;;;;;;4958439;28;19930;-81
2021/08/18 12:34:34;;;;;;;;;;;18.90;99.90;;;;;;4975859;28;20408;-81
2021/08/18 12:37:01;;;;;;;;;;;18.90;99.90;;;;;;4974203;28;20016;-81
2021/08/18 12:39:33;;;;;;;;;;;18.90;99.90;;;;;;4975720;28;20371;-81
2021/08/18 12:42:00;;;;;;;;;;;18.80;99.90;;;;;;4974351;28;19928;-81
2021/08/18 12:44:30;;;;;;;;;;;18.90;99.90;;;;;;4975701;28;20012;-81
2021/08/18 12:47:09;;;;;;;;;;;18.80;99.90;;;;;;4958920;28;19926;-81
2021/08/18 12:49:36;;;;;;;;;;;18.80;99.90;;;;;;4956277;28;20469;-81
2021/08/18 12:52:03;;;;;;;;;;;18.80;99.90;;;;;;4966354;28;19927;-81
2021/08/18 12:54:31;;;;;;;;;;;18.70;99.90;;;;;;4955689;28;20437;-81
2021/08/18 12:56:59;;;;;;;;;;;18.80;99.90;;;;;;4956579;28;19929;-81
2021/08/18 12:59:27;;;;;;;;;;;19.00;99.90;;;;;;4955843;28;19934;-82
2021/08/18 13:01:56;;;;;;;;;;;19.20;99.90;;;;;;4972778;28;19922;-82
2021/08/18 13:04:22;;;;;;;;;;;19.30;99.90;;;;;;4958683;28;19949;-82
2021/08/18 13:06:47;;;;;;;;;;;19.40;99.90;;;;;;4942999;28;20394;-81
2021/08/18 13:09:13;;;;;;;;;;;19.50;99.90;;;;;;4958134;28;19941;-81
2021/08/18 13:11:41;;;;;;;;;;;19.50;99.90;;;;;;4956333;28;20729;-83
2021/08/18 13:14:07;;;;;;;;;;;19.40;99.90;;;;;;4974246;28;19979;-82
2021/08/18 13:16:33;;;;;;;;;;;19.40;99.90;;;;;;4958241;28;19926;-82
2021/08/18 13:18:59;;;;;;;;;;;19.30;99.90;;;;;;4973975;28;20008;-81
2021/08/18 13:21:24;;;;;;;;;;;19.20;99.90;;;;;;4930139;28;20298;-81
2021/08/18 13:23:50;;;;;;;;;;;19.10;99.90;;;;;;4951377;28;19969;-81
2021/08/18 13:26:16;;;;;;;;;;;19.00;99.90;;;;;;4952261;28;19930;-82
2021/08/18 13:28:42;;;;;;;;;;;18.90;99.90;;;;;;4953206;28;19945;-81
2021/08/18 13:31:08;;;;;;;;;;;18.90;99.90;;;;;;4953728;28;19981;-82
2021/08/18 13:33:34;;;;;;;;;;;18.90;99.90;;;;;;4953807;28;19933;-81
2021/08/18 13:36:00;;;;;;;;;;;18.80;99.90;;;;;;4953751;28;19918;-81
2021/08/18 13:38:28;;;;;;;;;;;18.80;99.90;;;;;;4954608;28;19933;-81
2021/08/18 13:40:53;;;;;;;;;;;18.80;99.90;;;;;;4960923;28;20519;-81
2021/08/18 13:43:19;;;;;;;;;;;18.80;99.90;;;;;;4939309;28;19954;-82
2021/08/18 13:45:45;;;;;;;;;;;18.90;99.90;;;;;;4972450;28;20873;-81
2021/08/18 13:48:11;;;;;;;;;;;19.00;99.90;;;;;;4939121;28;19926;-82
2021/08/18 13:50:37;;;;;;;;;;;19.10;99.90;;;;;;4955364;28;20313;-82
2021/08/18 13:53:02;;;;;;;;;;;19.10;99.90;;;;;;4960082;28;19922;-82
2021/08/18 13:55:28;;;;;;;;;;;19.10;99.90;;;;;;4954497;28;19922;-81
2021/08/18 13:57:54;;;;;;;;;;;19.00;99.90;;;;;;4938978;28;19929;-81
2021/08/18 14:00:20;;;;;;;;;;;19.00;99.90;;;;;;4954183;28;19926;-82
2021/08/18 14:02:45;;;;;;;;;;;18.90;99.90;;;;;;4923704;28;19978;-81
2021/08/18 14:05:12;;;;;;;;;;;18.70;99.90;;;;;;4952120;28;19941;-81
2021/08/18 14:07:38;;;;;;;;;;;18.70;99.90;;;;;;4936005;28;19926;-81
2021/08/18 14:10:04;;;;;;;;;;;18.70;99.90;;;;;;4919467;28;20393;-81
2021/08/18 14:12:30;;;;;;;;;;;18.80;99.90;;;;;;4919699;28;19973;-81
2021/08/18 14:14:56;;;;;;;;;;;18.80;99.90;;;;;;4935594;28;19934;-81
2021/08/18 14:17:23;;;;;;;;;;;18.80;99.90;;;;;;4935752;28;19926;-81
2021/08/18 14:19:49;;;;;;;;;;;18.80;99.90;;;;;;4951581;28;19950;-82
2021/08/18 14:22:15;;;;;;;;;;;18.80;99.90;;;;;;4936607;28;19926;-82